Latest Weather Observations for Tibooburra Airport

IDN60801

Issued at 5:12 pm EST Friday 22 June 2018 (issued every 10 minutes, with the page automatically refreshed every 10 minutes)

About weather observations | Map of weather stations | Latest weather observations for NSW | Other Formats
Station Details ID: 046126 Name: TIBOOBURRA AIRPORT Lat: -29.44 Lon: 142.06 Height: 176.4 m
Data from the previous 72 hours. | See also: Recent months at Tibooburra Airport
Date/Time
EST
Temp
°C
App
Temp
°C
Dew
Point
°C
Rel
Hum
%
Delta-T
°C
Wind Press
QNH
hPa
Press
MSL
hPa
Rain since
9am
mm
Dir  Spd
km/h
Gust
km/h
Spd
kts
Gust
kts
22/05:00pm 18.2 14.3 -1.6 26 8.4 ESE 9 13 5 7 1025.2 1025.2 0.0
22/04:30pm 18.6 14.7 -1.3 26 8.5 ESE 9 11 5 6 1025.1 1025.1 0.0
22/04:00pm 18.6 14.7 -1.3 26 8.5 ESE 9 15 5 8 1025.0 1025.0 0.0
22/03:30pm 19.0 15.6 -0.9 26 8.6 SSE 7 13 4 7 1024.9 1024.9 0.0
22/03:00pm 19.0 14.5 -0.4 27 8.5 ESE 13 19 7 10 1025.0 1025.0 0.0
22/02:30pm 18.9 14.4 0.0 28 8.3 E 13 20 7 11 1025.2 1025.2 0.0
22/02:00pm 18.9 14.8 0.0 28 8.3 E 11 19 6 10 1025.5 1025.5 0.0
22/01:30pm 18.8 14.4 0.4 29 8.2 ENE 13 19 7 10 1025.9 1025.9 0.0
22/01:00pm 18.1 13.7 0.3 30 7.8 NE 13 19 7 10 1026.3 1026.4 0.0
22/12:30pm 17.8 13.4 0.5 31 7.6 ENE 13 19 7 10 1026.8 1026.9 0.0
22/12:00pm 17.1 12.8 0.7 33 7.2 ENE 13 20 7 11 1027.3 1027.4 0.0
22/11:30am 16.4 12.1 0.9 35 6.8 E 13 17 7 9 1027.6 1027.7 0.0
22/11:00am 15.5 12.0 1.3 38 6.2 E 9 15 5 8 1027.9 1028.0 0.0
22/10:30am 13.9 11.0 1.5 43 5.4 ESE 6 9 3 5 1028.2 1028.2 0.0
22/10:00am 12.1 8.6 1.4 48 4.5 S 9 13 5 7 1028.2 1028.2 0.0
22/09:30am 10.4 6.9 1.2 53 3.9 SSW 9 13 5 7 1027.9 1028.0 0.0
22/09:00am 8.2 4.9 0.2 57 3.2 SW 7 9 4 5 1027.7 1027.8 0.0
22/08:30am 7.0 3.7 0.0 61 2.8 SW 7 9 4 5 1027.6 1027.7 0.0
22/08:00am 5.5 2.2 -0.1 67 2.1 S 7 11 4 6 1027.4 1027.5 0.0
22/07:30am 4.8 1.1 -0.2 70 1.9 SSW 9 11 5 6 1027.1 1027.2 0.0
22/07:00am 5.6 1.5 0.0 67 2.2 SSW 11 11 6 6 1026.8 1026.9 0.0
22/06:30am 5.8 2.1 0.0 66 2.3 SSW 9 13 5 7 1026.6 1026.7 0.0
22/06:00am 6.5 3.2 0.4 65 2.4 S 7 9 4 5 1026.3 1026.4 0.0
22/05:30am 6.9 3.3 0.6 64 2.5 S 9 11 5 6 1026.1 1026.1 0.0
22/05:00am 8.0 4.5 1.0 61 2.8 SSE 9 11 5 6 1026.2 1026.3 0.0
22/04:30am 8.0 4.9 1.4 63 2.7 SSE 7 11 4 6 1026.2 1026.3 0.0
22/04:00am 8.3 4.5 1.7 63 2.7 SE 11 13 6 7 1026.2 1026.3 0.0
22/03:30am 8.1 5.2 1.7 64 2.7 SSE 6 9 3 5 1026.1 1026.1 0.0
22/03:00am 8.5 5.5 1.9 63 2.7 S 7 11 4 6 1026.1 1026.1 0.0
22/02:30am 8.5 5.4 1.4 61 2.9 S 7 9 4 5 1026.2 1026.3 0.0
22/02:00am 8.9 5.9 2.3 63 2.8 SSE 7 9 4 5 1026.2 1026.3 0.0
22/01:30am 8.7 5.7 1.8 62 2.9 S 7 9 4 5 1026.3 1026.4 0.0
22/01:00am 8.6 5.6 1.7 62 2.9 S 7 7 4 4 1026.4 1026.5 0.0
22/12:30am 8.8 5.7 1.2 59 3.1 SSW 7 9 4 5 1026.7 1026.8 0.0
22/12:00am 9.0 5.5 1.4 59 3.1 SSW 9 9 5 5 1026.9 1027.0 0.0
 
Date/Time
EST
Temp
°C
App
Temp
°C
Dew
Point
°C
Rel
Hum
%
Delta-T
°C
Wind Press
QNH
hPa
Press
MSL
hPa
Rain since
9am
mm
Dir  Spd
km/h
Gust
km/h
Spd
kts
Gust
kts
21/11:30pm 9.1 5.6 1.0 57 3.3 SSW 9 11 5 6 1026.9 1027.0 0.0
21/11:00pm 9.4 5.5 1.1 56 3.4 SW 11 11 6 6 1027.1 1027.2 0.0
21/10:30pm 9.7 6.1 0.9 54 3.6 SW 9 11 5 6 1027.2 1027.3 0.0
21/10:00pm 9.8 6.6 0.9 54 3.7 SSW 7 9 4 5 1027.0 1027.1 0.0
21/09:30pm 10.6 7.0 0.9 51 4.0 S 9 11 5 6 1027.0 1027.1 0.0
21/09:00pm 11.3 8.2 1.3 50 4.2 SSW 7 9 4 5 1026.9 1027.0 0.0
21/08:30pm 11.2 8.0 0.6 48 4.4 SSW 7 9 4 5 1026.9 1027.0 0.0
21/08:00pm 11.9 8.8 1.3 48 4.5 SSW 7 9 4 5 1026.7 1026.8 0.0
21/07:30pm 12.6 9.1 1.0 45 4.9 S 9 11 5 6 1026.5 1026.6 0.0
21/07:00pm 13.6 9.7 1.3 43 5.3 SSE 11 11 6 6 1026.3 1026.4 0.0
21/06:30pm 14.4 11.0 1.7 42 5.6 SE 9 11 5 6 1026.0 1026.0 0.0
21/06:00pm 15.3 11.1 1.4 39 6.1 ESE 13 15 7 8 1025.7 1025.7 0.0
21/05:30pm 16.9 12.0 1.8 36 6.8 ESE 17 20 9 11 1025.5 1025.5 0.0
21/05:00pm 17.7 12.4 1.7 34 7.2 ESE 19 22 10 12 1025.4 1025.4 0.0
21/04:30pm 18.3 13.4 1.8 33 7.5 E 17 20 9 11 1025.2 1025.2 0.0
21/04:00pm 18.3 14.1 1.8 33 7.5 E 13 22 7 12 1025.0 1025.0 0.0
21/03:30pm 18.0 13.5 1.9 34 7.3 ESE 15 24 8 13 1025.0 1025.0 0.0
21/03:00pm 18.2 12.9 2.1 34 7.3 E 19 26 10 14 1025.0 1025.0 0.0
21/02:30pm 18.2 13.7 2.1 34 7.4 ESE 15 24 8 13 1025.3 1025.3 0.0
21/02:00pm 17.9 13.4 2.2 35 7.1 E 15 28 8 15 1025.5 1025.5 0.0
21/01:30pm 17.8 13.4 2.5 36 7.0 ESE 15 22 8 12 1025.8 1025.8 0.0
21/01:00pm 17.3 12.9 2.5 37 6.7 ESE 15 24 8 13 1026.4 1026.5 0.0
21/12:30pm 16.9 12.1 2.5 38 6.6 ESE 17 26 9 14 1026.9 1027.0 0.0
21/12:00pm 16.6 11.4 2.2 38 6.5 ESE 19 24 10 13 1027.3 1027.4 0.0
21/11:30am 15.7 10.4 1.8 39 6.2 ESE 19 24 10 13 1027.8 1027.9 0.0
21/11:00am 14.6 9.0 1.5 41 5.7 ESE 20 28 11 15 1028.0 1028.1 0.0
21/10:30am 13.6 8.3 1.6 44 5.2 ESE 19 22 10 12 1028.2 1028.2 0.0
21/10:00am 12.8 7.9 2.1 48 4.6 ESE 17 20 9 11 1028.3 1028.3 0.0
21/09:30am 10.7 7.2 1.3 52 4.0 SE 9 13 5 7 1028.2 1028.2 0.0
21/09:00am 8.2 5.1 0.0 56 3.2 S 6 7 3 4 1028.0 1028.1 0.0
21/08:30am 6.5 3.1 -0.7 60 2.8 SSE 7 9 4 5 1027.8 1027.9 0.0
21/08:00am 4.4 0.8 -2.0 63 2.3 SSW 7 9 4 5 1027.5 1027.6 0.0
21/07:30am 3.4 -0.6 -2.3 66 2.0 SSW 9 11 5 6 1027.2 1027.3 0.0
21/07:00am 3.2 -0.9 -2.9 64 2.1 SW 9 11 5 6 1026.9 1027.0 0.0
21/06:30am 3.3 -1.2 -3.1 63 2.2 SW 11 11 6 6 1026.7 1026.8 0.0
21/06:00am 3.1 -1.9 -3.9 60 2.4 WSW 13 15 7 8 1026.4 1026.5 0.0
21/05:30am 3.7 -1.2 -3.6 59 2.5 WSW 13 13 7 7 1026.1 1026.1 0.0
21/05:00am 3.8 -1.1 -3.7 58 2.6 WSW 13 15 7 8 1025.9 1025.9 0.0
21/04:30am 4.5 0.0 -3.5 56 2.8 WSW 11 11 6 6 1025.9 1025.9 0.0
21/04:00am 4.9 0.8 -3.4 55 2.9 WSW 9 11 5 6 1025.9 1025.9 0.0
21/03:30am 5.1 1.0 -3.4 54 3.0 SW 9 11 5 6 1026.0 1026.0 0.0
21/03:00am 5.1 0.6 -3.4 54 3.0 WSW 11 11 6 6 1026.0 1026.0 0.0
21/02:30am 5.3 0.8 -3.5 53 3.1 WSW 11 13 6 7 1026.1 1026.1 0.0
21/02:00am 5.6 1.1 -3.5 52 3.2 WSW 11 13 6 7 1026.4 1026.5 0.0
21/01:30am 5.7 1.2 -3.6 51 3.3 WSW 11 13 6 7 1026.3 1026.4 0.0
21/01:00am 5.9 1.0 -3.7 50 3.4 WSW 13 15 7 8 1026.2 1026.3 0.0
21/12:30am 6.3 1.8 -3.3 50 3.4 WSW 11 13 6 7 1026.2 1026.3 0.0
21/12:00am 6.9 2.8 -3.3 48 3.7 WSW 9 11 5 6 1026.3 1026.4 0.0
 
Date/Time
EST
Temp
°C
App
Temp
°C
Dew
Point
°C
Rel
Hum
%
Delta-T
°C
Wind Press
QNH
hPa
Press
MSL
hPa
Rain since
9am
mm
Dir  Spd
km/h
Gust
km/h
Spd
kts
Gust
kts
20/11:30pm 7.3 2.8 -3.2 47 3.8 W 11 11 6 6 1026.4 1026.5 0.0
20/11:00pm 8.0 4.3 -2.9 46 4.0 SW 7 9 4 5 1026.3 1026.4 0.0
20/10:30pm 8.5 4.4 -2.7 45 4.2 SW 9 9 5 5 1026.3 1026.4 0.0
20/10:00pm 8.7 4.6 -3.2 43 4.4 SW 9 11 5 6 1026.3 1026.4 0.0
20/09:30pm 9.3 5.6 -2.6 43 4.5 SW 7 9 4 5 1026.2 1026.3 0.0
20/09:00pm 9.4 5.9 -2.8 42 4.6 S 6 6 3 3 1026.1 1026.1 0.0
20/08:30pm 10.4 6.4 -2.3 41 4.9 ESE 9 11 5 6 1026.1 1026.1 0.0
20/08:00pm 10.9 6.9 -2.1 40 5.0 ESE 9 11 5 6 1025.8 1025.8 0.0
20/07:30pm 11.3 6.2 -2.1 39 5.3 ESE 15 15 8 8 1025.6 1025.6 0.0
20/07:00pm 11.6 7.6 -2.2 38 5.4 SE 9 11 5 6 1025.4 1025.4 0.0
20/06:30pm 12.1 7.3 -2.5 36 5.7 E 13 15 7 8 1025.0 1025.0 0.0
20/06:00pm 12.9 8.9 -2.6 34 6.1 E 9 11 5 6 1024.9 1024.9 0.0
20/05:30pm 13.5 7.4 -2.4 33 6.3 E 20 26 11 14 1024.5 1024.5 0.0
20/05:00pm 14.2 9.0 -3.1 30 6.8 SE 15 20 8 11 1024.8 1024.8 0.0
20/04:30pm 14.3 10.8 -3.0 30 6.9 WSW 6 11 3 6 1025.6 1025.6 0.0
20/04:00pm 14.6 9.8 -2.8 30 6.9 WSW 13 17 7 9 1026.0 1026.0 0.0
20/03:30pm 15.0 10.2 -2.4 30 7.0 SW 13 19 7 10 1025.9 1025.9 0.0
20/03:00pm 14.6 10.6 -2.3 31 6.8 SW 9 15 5 8 1025.9 1025.9 0.0
20/02:30pm 14.5 10.2 -2.0 32 6.7 WSW 11 17 6 9 1026.0 1026.0 0.0
20/02:00pm 14.0 9.7 -2.0 33 6.4 SW 11 17 6 9 1026.1 1026.1 0.0
20/01:30pm 13.5 10.0 -1.3 36 6.0 WSW 7 11 4 6 1026.2 1026.3 0.0
20/01:00pm 13.1 10.9 -1.2 37 5.8 CALM 0 0 0 0 1026.7 1026.8 0.0
20/12:30pm 12.8 9.6 -0.8 39 5.6 NNE 6 11 3 6 1026.7 1026.8 0.0
20/12:00pm 12.6 8.8 -0.6 40 5.4 NNE 9 13 5 7 1026.8 1026.9 0.0
20/11:30am 12.2 7.6 -1.0 40 5.4 NE 13 17 7 9 1027.2 1027.3 0.0
20/11:00am 11.9 7.7 -0.9 41 5.2 NE 11 15 6 8 1027.4 1027.5 0.0
20/10:30am 11.1 6.8 -1.3 42 4.9 NNE 11 17 6 9 1027.6 1027.7 0.0
20/10:00am 10.5 6.6 -1.5 43 4.7 NNE 9 13 5 7 1027.4 1027.5 0.0
20/09:30am 10.0 5.7 -1.4 45 4.5 N 11 15 6 8 1027.2 1027.3 0.0
20/09:00am 9.5 6.0 -1.5 46 4.3 NNW 7 9 4 5 1027.2 1027.3 0.0
20/08:30am 8.4 5.0 -1.7 49 3.9 NNE 6 7 3 4 1026.7 1026.8 0.0
20/08:00am 7.7 3.4 -1.8 51 3.6 NNE 11 13 6 7 1026.7 1026.8 0.0
20/07:30am 7.2 2.8 -2.2 51 3.5 NNE 11 13 6 7 1026.2 1026.3 0.0
20/07:00am 6.8 3.3 -2.9 50 3.5 ENE 6 7 3 4 1026.0 1026.0 0.0
20/06:30am 7.3 2.5 -2.4 50 3.6 NE 13 15 7 8 1025.6 1025.6 0.0
20/06:00am 7.3 2.5 -2.2 51 3.5 NE 13 15 7 8 1025.3 1025.3 0.0
20/05:30am 7.2 1.7 -2.2 51 3.5 E 17 19 9 10 1024.9 1024.9 0.0
20/05:00am 7.7 4.1 -1.8 51 3.6 NE 7 11 4 6 1025.6 1025.6 0.0
20/04:30am 7.6 2.9 -2.1 50 3.6 E 13 15 7 8 1025.3 1025.3 0.0
20/04:00am 8.0 3.3 -2.0 49 3.8 ENE 13 13 7 7 1025.3 1025.3 0.0
20/03:30am 8.0 3.7 -1.8 50 3.7 ENE 11 11 6 6 1025.0 1025.0 0.0
20/03:00am 7.7 3.3 -2.3 49 3.7 E 11 13 6 7 1025.1 1025.1 0.0
20/02:30am 7.9 3.5 -2.1 49 3.8 E 11 13 6 7 1025.4 1025.4 0.0
20/02:00am 8.3 4.3 -2.0 48 3.9 ESE 9 11 5 6 1025.5 1025.5 0.0
20/01:30am 8.5 5.0 -1.6 49 3.9 E 7 9 4 5 1025.9 1025.9 0.0
20/01:00am 8.4 3.7 -2.0 48 3.9 ESE 13 13 7 7 1026.0 1026.0 0.0
20/12:30am 8.8 5.5 -1.6 48 4.0 SSE 6 7 3 4 1026.3 1026.4 0.0
20/12:00am 9.1 6.1 -1.6 47 4.1 ESE 4 7 2 4 1026.6 1026.7 0.0
 
Date/Time
EST
Temp
°C
App
Temp
°C
Dew
Point
°C
Rel
Hum
%
Delta-T
°C
Wind Press
QNH
hPa
Press
MSL
hPa
Rain since
9am
mm
Dir  Spd
km/h
Gust
km/h
Spd
kts
Gust
kts
19/11:30pm 9.3 6.7 -1.4 47 4.2 E 2 6 1 3 1026.7 1026.8 0.0
19/11:00pm 9.6 6.3 -1.4 46 4.3 E 6 7 3 4 1026.9 1027.0 0.0
19/10:30pm 9.6 5.7 -1.7 45 4.4 ESE 9 9 5 5 1026.6 1026.7 0.0
19/10:00pm 9.9 6.5 -1.8 44 4.5 ENE 6 7 3 4 1026.9 1027.0 0.0
19/09:30pm 9.5 5.4 -3.1 41 4.7 ENE 9 13 5 7 1026.7 1026.8 0.0
19/09:00pm 10.7 6.4 -1.7 42 4.8 SE 11 13 6 7 1026.4 1026.5 0.0
19/08:30pm 10.5 6.1 -2.2 41 4.9 SSE 11 13 6 7 1026.7 1026.8 0.0
19/08:00pm 10.9 6.5 -2.1 40 5.0 SSE 11 13 6 7 1026.6 1026.7 0.0
19/07:30pm 11.2 7.2 -2.2 39 5.2 SE 9 11 5 6 1026.3 1026.4 0.0
19/07:00pm 11.6 8.0 -2.2 38 5.4 SE 7 9 4 5 1026.4 1026.5 0.0
19/06:30pm 12.1 8.5 -2.1 37 5.6 SE 7 9 4 5 1026.2 1026.3 0.0
19/06:00pm 12.2 8.5 -2.8 35 5.8 E 7 9 4 5 1025.9 1025.9 0.0
19/05:30pm 13.8 11.6 -1.8 34 6.3 CALM 0 0 0 0 1026.0 1026.0 0.0

Other Formats:

Comma delimited format used in spreadsheet applications
http://www.bom.gov.au/fwo/IDN60801/IDN60801.95485.axf

JavaScript Object Notation format (JSON) in row-major order
http://www.bom.gov.au/fwo/IDN60801/IDN60801.95485.json